createdAt,value
2023-04-11T00:00:33.166Z,100062.09
2023-04-11T00:03:37.422Z,100060.31
2023-04-11T00:06:39.309Z,100060.25
2023-04-11T00:09:41.303Z,100070.75
2023-04-11T00:12:42.704Z,100068.31
2023-04-11T00:15:44.358Z,100078.13
2023-04-11T00:18:46.003Z,100078.78
2023-04-11T00:21:47.678Z,100078.53
2023-04-11T00:24:49.428Z,100094.66
2023-04-11T00:27:51.095Z,100091.19
2023-04-11T00:30:53.067Z,100083.09
2023-04-11T00:33:54.729Z,100083.03
2023-04-11T00:36:56.680Z,100096.13
2023-04-11T00:39:58.172Z,100096.19
2023-04-11T00:42:59.860Z,100092.16
2023-04-11T00:46:01.905Z,100073.94
2023-04-11T00:49:03.391Z,100102.03
2023-04-11T00:52:06.422Z,100097.38
2023-04-11T00:55:09.945Z,100087.13
2023-04-11T00:58:12.896Z,100099.50
2023-04-11T01:01:16.804Z,100106.00
2023-04-11T01:04:18.421Z,100103.34
2023-04-11T01:07:21.741Z,100123.66
2023-04-11T01:10:28.735Z,100137.38
2023-04-11T01:13:32.479Z,100142.47
2023-04-11T01:16:34.550Z,100136.13
2023-04-11T01:19:36.374Z,100133.16
2023-04-11T01:22:40.043Z,100126.97
2023-04-11T01:25:41.731Z,100138.56
2023-04-11T01:28:45.558Z,100138.91
2023-04-11T01:31:49.974Z,100145.53
2023-04-11T01:34:55.675Z,100148.94
2023-04-11T01:37:57.524Z,100130.00
2023-04-11T01:41:00.063Z,100123.75
2023-04-11T01:44:05.661Z,100105.09
2023-04-11T01:47:07.807Z,100111.19
2023-04-11T01:50:09.548Z,100112.59
2023-04-11T01:53:11.202Z,100113.97
2023-04-11T01:56:14.464Z,100103.66
2023-04-11T01:59:16.325Z,100096.06
2023-04-11T02:02:19.871Z,100105.88
2023-04-11T02:05:22.109Z,100113.81
2023-04-11T02:08:23.879Z,100119.94
2023-04-11T02:11:25.644Z,100118.41
2023-04-11T02:14:29.774Z,100118.72
2023-04-11T02:17:32.363Z,100105.44
2023-04-11T02:20:33.782Z,100115.00
2023-04-11T02:23:35.445Z,100114.69
2023-04-11T02:26:37.247Z,100109.84
2023-04-11T02:29:38.906Z,100104.00
2023-04-11T02:32:40.821Z,100100.03
2023-04-11T02:35:42.796Z,100110.13
2023-04-11T02:38:44.500Z,100113.78
2023-04-11T02:41:46.180Z,100120.97
2023-04-11T02:44:47.849Z,100118.47
2023-04-11T02:47:49.425Z,100114.63
2023-04-11T02:50:52.018Z,100121.13
2023-04-11T02:53:54.318Z,100136.81
2023-04-11T02:56:56.578Z,100138.69
2023-04-11T02:59:58.381Z,100147.38
2023-04-11T03:03:10.478Z,100150.34
2023-04-11T03:06:16.269Z,100149.34
2023-04-11T03:09:21.055Z,100156.50
2023-04-11T03:12:22.921Z,100161.28
2023-04-11T03:15:32.228Z,100147.63
2023-04-11T03:18:38.771Z,100148.41
2023-04-11T03:21:44.035Z,100154.22
2023-04-11T03:24:45.870Z,100160.84
2023-04-11T03:27:47.638Z,100172.88
2023-04-11T03:30:50.466Z,100187.44
2023-04-11T03:33:56.895Z,100210.53
2023-04-11T03:36:58.601Z,100209.66
2023-04-11T03:40:00.916Z,100196.59
2023-04-11T03:43:04.836Z,100190.25
2023-04-11T03:46:09.725Z,100179.59
2023-04-11T03:49:15.785Z,100174.81
2023-04-11T03:52:19.912Z,100173.09
2023-04-11T03:55:23.717Z,100178.38
2023-04-11T03:58:26.531Z,100183.88
2023-04-11T04:01:28.128Z,100186.56
2023-04-11T04:04:36.508Z,100185.88
2023-04-11T04:07:52.940Z,100196.69
2023-04-11T04:11:12.346Z,100188.09
2023-04-11T04:14:14.152Z,100196.25
2023-04-11T04:17:16.459Z,100185.56
2023-04-11T04:20:18.880Z,100186.06
2023-04-11T04:23:27.059Z,100173.69
2023-04-11T04:26:49.958Z,100185.09
2023-04-11T04:30:22.004Z,100174.66
2023-04-11T04:33:43.021Z,100171.16
2023-04-11T04:36:56.386Z,100164.97
2023-04-11T04:40:13.239Z,100182.16
2023-04-11T04:43:24.329Z,100196.00
2023-04-11T04:46:36.584Z,100190.59
2023-04-11T04:49:40.210Z,100172.38
2023-04-11T04:52:41.889Z,100171.22
2023-04-11T04:55:43.590Z,100196.00
2023-04-11T04:58:47.098Z,100201.97
2023-04-11T05:01:51.586Z,100209.66
2023-04-11T05:05:04.506Z,100219.19
2023-04-11T05:08:08.125Z,100229.84
2023-04-11T05:11:12.284Z,100239.47
2023-04-11T05:14:14.209Z,100237.75
2023-04-11T05:17:16.249Z,100236.13
2023-04-11T05:20:17.983Z,100257.22
2023-04-11T05:23:21.945Z,100264.41
2023-04-11T05:26:26.462Z,100267.44
2023-04-11T05:29:29.914Z,100264.81
2023-04-11T05:32:33.971Z,100268.41
2023-04-11T05:35:36.405Z,100271.91
2023-04-11T05:38:37.932Z,100263.53
2023-04-11T05:41:39.770Z,100271.13
2023-04-11T05:44:42.025Z,100272.94
2023-04-11T05:47:43.759Z,100285.69
2023-04-11T05:50:46.459Z,100282.31
2023-04-11T05:53:47.887Z,100288.34
2023-04-11T05:56:49.558Z,100288.63
2023-04-11T05:59:52.936Z,100291.47
2023-04-11T06:02:54.920Z,100297.75
2023-04-11T06:05:57.037Z,100308.50
2023-04-11T06:08:58.425Z,100315.41
2023-04-11T06:12:00.084Z,100319.91
2023-04-11T06:15:02.525Z,100318.13
2023-04-11T06:18:04.007Z,100315.19
2023-04-11T06:21:06.219Z,100319.81
2023-04-11T06:24:11.042Z,100318.97
2023-04-11T06:27:12.625Z,100320.69
2023-04-11T06:30:14.893Z,100321.00
2023-04-11T06:33:16.578Z,100340.09
2023-04-11T06:36:18.323Z,100339.84
2023-04-11T06:39:21.868Z,100332.50
2023-04-11T06:42:24.032Z,100344.69
2023-04-11T06:45:27.019Z,100355.22
2023-04-11T06:48:28.700Z,100363.63
2023-04-11T06:51:30.431Z,100353.66
2023-04-11T06:54:32.296Z,100354.34
2023-04-11T06:57:34.496Z,100362.63
2023-04-11T07:00:36.054Z,100365.28
2023-04-11T07:03:38.130Z,100370.81
2023-04-11T07:06:39.840Z,100378.09
2023-04-11T07:09:41.515Z,100376.03
2023-04-11T07:12:43.473Z,100387.34
2023-04-11T07:15:44.947Z,100379.38
2023-04-11T07:18:46.643Z,100382.75
2023-04-11T07:21:48.759Z,100385.38
2023-04-11T07:24:55.096Z,100388.75
2023-04-11T07:27:57.079Z,100390.78
2023-04-11T07:30:59.132Z,100388.47
2023-04-11T07:34:01.132Z,100383.69
2023-04-11T07:37:03.502Z,100378.59
2023-04-11T07:40:10.723Z,100392.94
2023-04-11T07:43:12.140Z,100407.09
2023-04-11T07:46:15.031Z,100397.53
2023-04-11T07:49:16.930Z,100398.34
2023-04-11T07:52:18.674Z,100402.19
2023-04-11T07:55:20.326Z,100401.69
2023-04-11T07:58:22.229Z,100402.72
2023-04-11T08:01:25.473Z,100401.22
2023-04-11T08:04:31.710Z,100410.66
2023-04-11T08:07:33.219Z,100416.59
2023-04-11T08:10:34.946Z,100434.69
2023-04-11T08:13:36.661Z,100421.19
2023-04-11T08:16:38.256Z,100419.47
2023-04-11T08:19:40.191Z,100432.94
2023-04-11T08:22:44.563Z,100422.22
2023-04-11T08:25:46.632Z,100415.94
2023-04-11T08:28:48.364Z,100407.78
2023-04-11T08:31:50.145Z,100422.34
2023-04-11T08:34:51.826Z,100421.72
2023-04-11T08:37:54.686Z,100419.91
2023-04-11T08:40:56.590Z,100422.84
2023-04-11T08:43:58.910Z,100421.63
2023-04-11T08:47:00.721Z,100420.81
2023-04-11T08:50:03.662Z,100422.00
2023-04-11T08:53:08.162Z,100425.72
2023-04-11T08:56:15.438Z,100423.88
2023-04-11T08:59:17.524Z,100430.38
2023-04-11T09:02:19.603Z,100421.28
2023-04-11T09:05:41.375Z,100437.47
2023-04-11T09:08:43.017Z,100436.66
2023-04-11T09:11:51.988Z,100427.69
2023-04-11T09:14:54.088Z,100420.72
2023-04-11T09:17:59.790Z,100425.97
2023-04-11T09:21:08.288Z,100422.75
2023-04-11T09:24:17.008Z,100420.06
2023-04-11T09:27:19.625Z,100409.53
2023-04-11T09:30:26.654Z,100418.97
2023-04-11T09:33:31.589Z,100411.78
2023-04-11T09:36:33.723Z,100418.16
2023-04-11T09:39:35.767Z,100418.75
2023-04-11T09:42:37.511Z,100412.66
2023-04-11T09:45:51.708Z,100414.78
2023-04-11T09:48:56.626Z,100429.66
2023-04-11T09:51:59.376Z,100434.84
2023-04-11T09:55:04.618Z,100430.97
2023-04-11T09:58:09.878Z,100416.84
2023-04-11T10:01:11.496Z,100426.78
2023-04-11T10:04:14.330Z,100433.03
2023-04-11T10:07:19.509Z,100429.69
2023-04-11T10:10:23.226Z,100446.38
2023-04-11T10:13:47.466Z,100444.69
2023-04-11T10:17:21.904Z,100447.81
2023-04-11T10:20:44.721Z,100443.06
2023-04-11T10:24:15.885Z,100454.84
2023-04-11T10:27:45.574Z,100457.72
2023-04-11T10:31:04.224Z,100451.88
2023-04-11T10:34:14.318Z,100449.09
2023-04-11T10:37:31.090Z,100450.69
2023-04-11T10:40:32.546Z,100448.50
2023-04-11T10:43:37.937Z,100449.00
2023-04-11T10:46:45.406Z,100441.53
2023-04-11T10:49:47.419Z,100445.41
2023-04-11T10:52:49.556Z,100441.38
2023-04-11T10:55:51.281Z,100444.81
2023-04-11T10:58:53.363Z,100449.59
2023-04-11T11:01:55.785Z,100446.59
2023-04-11T11:04:58.454Z,100445.56
2023-04-11T11:07:59.852Z,100455.16
2023-04-11T11:11:08.965Z,100450.75
2023-04-11T11:14:10.837Z,100455.94
2023-04-11T11:17:14.220Z,100469.19
2023-04-11T11:20:17.201Z,100462.72
2023-04-11T11:23:18.845Z,100471.69
2023-04-11T11:26:20.586Z,100460.81
2023-04-11T11:29:31.328Z,100465.81
2023-04-11T11:32:33.274Z,100459.63
2023-04-11T11:35:34.908Z,100453.28
2023-04-11T11:38:36.741Z,100454.59
2023-04-11T11:41:40.243Z,100460.94
2023-04-11T11:44:41.961Z,100457.47
2023-04-11T11:47:45.290Z,100437.53
2023-04-11T11:50:46.823Z,100455.03
2023-04-11T11:54:05.606Z,100459.88
2023-04-11T11:57:07.070Z,100449.75
2023-04-11T12:00:10.427Z,100455.91
2023-04-11T12:03:12.593Z,100457.59
2023-04-11T12:06:15.998Z,100443.72
2023-04-11T12:09:17.680Z,100439.84
2023-04-11T12:12:19.327Z,100464.06
2023-04-11T12:15:22.953Z,100450.94
2023-04-11T12:18:26.502Z,100444.34
2023-04-11T12:21:28.296Z,100440.28
2023-04-11T12:24:30.022Z,100450.28
2023-04-11T12:27:34.768Z,100444.13
2023-04-11T12:30:37.597Z,100442.31
2023-04-11T12:33:39.393Z,100431.53
2023-04-11T12:36:41.434Z,100439.56
2023-04-11T12:39:43.183Z,100446.03
2023-04-11T12:42:56.339Z,100444.06
2023-04-11T12:45:58.774Z,100433.09
2023-04-11T12:49:00.642Z,100419.38
2023-04-11T12:52:02.829Z,100416.22
2023-04-11T12:55:04.999Z,100416.75
2023-04-11T12:58:09.278Z,100417.31
2023-04-11T13:01:11.243Z,100426.88
2023-04-11T13:04:13.475Z,100425.13
2023-04-11T13:07:15.020Z,100428.31
2023-04-11T13:10:16.772Z,100427.63
2023-04-11T13:13:19.015Z,100431.13
2023-04-11T13:16:21.147Z,100431.13
2023-04-11T13:19:23.004Z,100432.66
2023-04-11T13:22:24.769Z,100418.94
2023-04-11T13:25:26.854Z,100423.91
2023-04-11T13:28:28.245Z,100403.88
2023-04-11T13:31:29.999Z,100409.91
2023-04-11T13:34:31.935Z,100417.28
2023-04-11T13:37:33.671Z,100418.28
2023-04-11T13:40:36.152Z,100414.00
2023-04-11T13:43:37.524Z,100399.44
2023-04-11T13:46:38.943Z,100399.00
2023-04-11T13:49:40.770Z,100395.41
2023-04-11T13:52:42.416Z,100393.47
2023-04-11T13:55:49.347Z,100389.13
2023-04-11T13:58:51.535Z,100416.69
2023-04-11T14:01:53.729Z,100400.22
2023-04-11T14:04:56.194Z,100400.84
2023-04-11T14:07:57.992Z,100398.38
2023-04-11T14:10:59.671Z,100400.41
2023-04-11T14:14:01.459Z,100404.97
2023-04-11T14:17:03.449Z,100392.19
2023-04-11T14:20:06.938Z,100402.88
2023-04-11T14:23:10.302Z,100399.91
2023-04-11T14:26:11.985Z,100400.34
2023-04-11T14:29:13.755Z,100395.44
2023-04-11T14:32:15.546Z,100384.13
2023-04-11T14:35:17.103Z,100390.06
2023-04-11T14:38:18.737Z,100388.28
2023-04-11T14:41:21.687Z,100396.50
2023-04-11T14:44:23.890Z,100385.44
2023-04-11T14:47:25.349Z,100395.94
2023-04-11T14:50:28.538Z,100395.09
2023-04-11T14:53:31.683Z,100386.84
2023-04-11T14:56:33.061Z,100366.41
2023-04-11T14:59:35.208Z,100375.34
2023-04-11T15:02:37.153Z,100372.19
2023-04-11T15:05:39.065Z,100373.78
2023-04-11T15:08:41.076Z,100378.31
2023-04-11T15:11:42.890Z,100381.13
2023-04-11T15:14:44.899Z,100373.56
2023-04-11T15:17:48.460Z,100363.50
2023-04-11T15:20:50.423Z,100373.22
2023-04-11T15:23:52.344Z,100362.13
2023-04-11T15:26:54.217Z,100350.00
2023-04-11T15:29:59.423Z,100358.91
2023-04-11T15:33:01.350Z,100354.59
2023-04-11T15:36:03.787Z,100349.31
2023-04-11T15:39:06.238Z,100349.78
2023-04-11T15:42:08.611Z,100362.97
2023-04-11T15:45:10.488Z,100355.44
2023-04-11T15:48:15.344Z,100343.28
2023-04-11T15:51:17.280Z,100347.16
2023-04-11T15:54:19.558Z,100346.13
2023-04-11T15:57:20.953Z,100352.78
2023-04-11T16:00:22.858Z,100345.66
2023-04-11T16:03:31.322Z,100341.22
2023-04-11T16:06:33.386Z,100348.09
2023-04-11T16:09:35.755Z,100343.59
2023-04-11T16:12:37.970Z,100340.25
2023-04-11T16:15:39.349Z,100335.63
2023-04-11T16:18:43.790Z,100347.88
2023-04-11T16:21:45.735Z,100339.38
2023-04-11T16:24:47.641Z,100329.97
2023-04-11T16:27:51.477Z,100336.72
2023-04-11T16:30:53.303Z,100336.34
2023-04-11T16:33:55.594Z,100333.91
2023-04-11T16:36:57.180Z,100333.91
2023-04-11T16:39:59.028Z,100328.66
2023-04-11T16:43:00.924Z,100335.91
2023-04-11T16:46:02.832Z,100325.97
2023-04-11T16:49:05.288Z,100330.06
2023-04-11T16:52:06.911Z,100327.66
2023-04-11T16:55:09.118Z,100324.41
2023-04-11T16:58:11.657Z,100324.75
2023-04-11T17:01:13.582Z,100317.63
2023-04-11T17:04:16.411Z,100314.28
2023-04-11T17:07:18.441Z,100310.31
2023-04-11T17:10:21.604Z,100301.75
2023-04-11T17:13:23.582Z,100293.00
2023-04-11T17:16:25.643Z,100298.59
2023-04-11T17:19:28.363Z,100308.97
2023-04-11T17:22:30.222Z,100302.00
2023-04-11T17:25:32.403Z,100301.63
2023-04-11T17:28:35.804Z,100312.63
2023-04-11T17:31:37.659Z,100313.59
2023-04-11T17:34:39.041Z,100310.63
2023-04-11T17:37:40.568Z,100314.03
2023-04-11T17:40:42.589Z,100316.81
2023-04-11T17:43:44.580Z,100308.44
2023-04-11T17:46:46.563Z,100304.06
2023-04-11T17:49:48.466Z,100298.13
2023-04-11T17:52:51.134Z,100304.22
2023-04-11T17:55:53.221Z,100295.84
2023-04-11T17:58:56.079Z,100293.34
2023-04-11T18:01:57.979Z,100305.41
2023-04-11T18:05:03.751Z,100312.59
2023-04-11T18:08:07.788Z,100313.22
2023-04-11T18:11:09.584Z,100311.97
2023-04-11T18:14:11.535Z,100312.13
2023-04-11T18:17:13.347Z,100310.94
2023-04-11T18:20:16.088Z,100312.91
2023-04-11T18:23:17.951Z,100321.78
2023-04-11T18:26:20.096Z,100312.28
2023-04-11T18:29:22.410Z,100315.63
2023-04-11T18:32:26.854Z,100319.13
2023-04-11T18:35:30.131Z,100321.28
2023-04-11T18:38:31.971Z,100325.25
2023-04-11T18:41:33.855Z,100323.25
2023-04-11T18:44:36.574Z,100317.38
2023-04-11T18:47:39.473Z,100314.66
2023-04-11T18:50:42.861Z,100324.56
2023-04-11T18:53:45.054Z,100316.03
2023-04-11T18:56:48.967Z,100316.53
2023-04-11T18:59:54.154Z,100314.84
2023-04-11T19:02:58.157Z,100308.75
2023-04-11T19:06:01.191Z,100309.25
2023-04-11T19:09:02.667Z,100308.66
2023-04-11T19:12:04.822Z,100308.59
2023-04-11T19:15:07.992Z,100316.97
2023-04-11T19:18:10.370Z,100303.00
2023-04-11T19:21:12.209Z,100310.25
2023-04-11T19:24:14.398Z,100306.66
2023-04-11T19:27:18.335Z,100299.56
2023-04-11T19:30:20.191Z,100292.38
2023-04-11T19:33:24.272Z,100296.84
2023-04-11T19:36:26.590Z,100287.19
2023-04-11T19:39:35.365Z,100298.06
2023-04-11T19:42:39.008Z,100291.91
2023-04-11T19:45:42.819Z,100289.25
2023-04-11T19:48:45.638Z,100288.50
2023-04-11T19:51:47.122Z,100293.66
2023-04-11T19:54:49.025Z,100293.84
2023-04-11T19:57:50.413Z,100282.50
2023-04-11T20:00:52.921Z,100285.84
2023-04-11T20:03:56.938Z,100268.25
2023-04-11T20:07:00.834Z,100261.81
2023-04-11T20:10:03.678Z,100260.97
2023-04-11T20:13:05.325Z,100261.94
2023-04-11T20:16:08.385Z,100249.19
2023-04-11T20:19:09.849Z,100247.69
2023-04-11T20:22:14.949Z,100251.78
2023-04-11T20:25:16.378Z,100238.63
2023-04-11T20:28:18.708Z,100245.47
2023-04-11T20:31:20.580Z,100235.38
2023-04-11T20:34:22.776Z,100220.31
2023-04-11T20:37:25.240Z,100222.69
2023-04-11T20:40:26.653Z,100218.31
2023-04-11T20:43:28.433Z,100207.97
2023-04-11T20:46:30.346Z,100209.03
2023-04-11T20:49:32.263Z,100202.28
2023-04-11T20:52:33.634Z,100192.06
2023-04-11T20:55:35.474Z,100194.03
2023-04-11T20:58:37.215Z,100193.06
2023-04-11T21:01:39.072Z,100179.25
2023-04-11T21:04:41.226Z,100186.53
2023-04-11T21:07:43.489Z,100173.97
2023-04-11T21:10:45.402Z,100183.41
2023-04-11T21:13:49.094Z,100172.75
2023-04-11T21:16:50.961Z,100168.81
2023-04-11T21:19:52.808Z,100163.94
2023-04-11T21:22:55.214Z,100164.06
2023-04-11T21:25:57.205Z,100157.41
2023-04-11T21:28:59.848Z,100158.06
2023-04-11T21:32:01.839Z,100151.00
2023-04-11T21:35:07.159Z,100151.47
2023-04-11T21:38:08.572Z,100143.53
2023-04-11T21:41:10.343Z,100142.75
2023-04-11T21:44:12.170Z,100145.72
2023-04-11T21:47:13.981Z,100139.78
2023-04-11T21:50:17.226Z,100128.16
2023-04-11T21:53:19.685Z,100126.19
2023-04-11T21:56:21.461Z,100122.63
2023-04-11T21:59:23.231Z,100113.94
2023-04-11T22:02:26.327Z,100109.78
2023-04-11T22:05:28.431Z,100103.78
2023-04-11T22:08:30.527Z,100095.06
2023-04-11T22:11:32.445Z,100093.94
2023-04-11T22:14:33.852Z,100093.22
2023-04-11T22:17:37.228Z,100087.09
2023-04-11T22:20:43.392Z,100082.59
2023-04-11T22:23:54.468Z,100074.75
2023-04-11T22:26:58.161Z,100061.75
2023-04-11T22:30:02.064Z,100058.28
2023-04-11T22:33:04.190Z,100046.88
2023-04-11T22:36:09.355Z,100043.44
2023-04-11T22:39:11.584Z,100043.63
2023-04-11T22:42:12.962Z,100037.59
2023-04-11T22:45:14.718Z,100040.22
2023-04-11T22:48:16.875Z,100043.00
2023-04-11T22:51:19.006Z,100044.81
2023-04-11T22:54:20.786Z,100037.72
2023-04-11T22:57:23.013Z,100028.28
2023-04-11T23:00:24.463Z,100027.41
2023-04-11T23:03:27.778Z,100024.72
2023-04-11T23:06:29.555Z,100017.44
2023-04-11T23:09:31.336Z,100011.44
2023-04-11T23:12:33.089Z,100015.00
2023-04-11T23:15:56.753Z,100000.09
2023-04-11T23:18:59.442Z,99995.78
2023-04-11T23:22:00.822Z,99997.59
2023-04-11T23:25:02.779Z,99994.06
2023-04-11T23:28:04.573Z,100000.28
2023-04-11T23:31:06.603Z,100001.41
2023-04-11T23:34:11.076Z,99995.72
2023-04-11T23:37:13.581Z,100001.41
2023-04-11T23:40:15.638Z,100008.41
2023-04-11T23:43:18.302Z,100004.25
2023-04-11T23:46:20.257Z,99999.50
2023-04-11T23:49:22.446Z,99998.63
2023-04-11T23:52:23.857Z,99995.19
2023-04-11T23:55:26.574Z,99992.81
2023-04-11T23:58:28.339Z,99989.91
